SBOSBO BER / EDDB
Speedbird OnlineSpeedbird Online BER / EDDB

Berlin Brandenburg Airport
01:58 -0.2°C

Location Berlin, Germany
Latitude: 52.380001
Longitude: 13.5225
Web Airport Website | Wikipedia
Altitude 48 Meter / 157 Feet
Distance 922 KM / 573 Miles
from London.
Time Zone UTC +1 hours (Europe/Berlin)
Codes IATA: BER
ICAO: EDDB
Currency £1 equals EUR 1.14
Runways
RunwayLength (m)Surface
07L3600ASPH
07R4000concrete
25L4000concrete
25R3600ASPH
Radio
TypeDescriptionFrequency
Live ATC
METAR EDDB 270020Z AUTO 01005KT 6000 OVC004 M00/M01 Q1021 TEMPO 3500 BR OVC005
TAF TAF EDDB 262300Z 2700/2724 02004KT 7000 OVC006 TEMPO 2700/2710 3000 BR OVC003 PROB30 TEMPO 2700/2708 1500 -FZDZ PROB30 TEMPO 2708/2714 2500 DZ TEMPO 2710/2716 03009KT BECMG 2712/2715 BKN012 BECMG 2715/2718 BKN020
Weather As Of 27 Jan 2023 01:58
Description Overcast clouds
Wind 9 km/h from North (10°)
Cloud Cover 100%
Precipitation Rain: none, Snow: none
Sunrise 07:55
Sunset 16:41
Lounges Lounge Tempelhof , Terminal 1
Rotations During the last 90 days there were
373 flights from LHR
257 flights from LCY
1 flights from LGW
405 flights to LHR
242 flights to LCY
1 flights to LGW



Support Speedbird Online

© 2017-2023 Speedbird Online